Time;durP1;ratioP1;P1;durP2;ratioP2;P2;SDS_P1;SDS_P2;PMS_P1;PMS_P2;Temp;Humidity;BMP_temperature;BMP_pressure;BME280_temperature;BME280_humidity;BME280_pressure;Samples;Min_cycle;Max_cycle;Signal;HPM_P1;HPM_P2
2023/03/29 00:01:24;;;;;;;0.30;0.30;;;4.70;99.90;;;;;;5084344;22;20479;-94
2023/03/29 00:03:50;;;;;;;0.30;0.30;;;4.70;99.90;;;;;;5065531;28;20432;-94
2023/03/29 00:06:21;;;;;;;0.30;0.30;;;4.70;99.90;;;;;;5080999;28;20428;-94
2023/03/29 00:08:50;;;;;;;0.23;0.23;;;4.60;99.90;;;;;;5078202;28;20440;-93
2023/03/29 00:11:22;;;;;;;0.30;0.30;;;4.70;99.90;;;;;;5063254;28;20855;-95
2023/03/29 00:13:49;;;;;;;0.30;0.30;;;4.60;99.90;;;;;;5111183;22;20492;-93
2023/03/29 00:16:15;;;;;;;0.30;0.30;;;4.60;99.90;;;;;;5077435;22;20499;-93
2023/03/29 00:18:40;;;;;;;0.30;0.30;;;4.50;99.90;;;;;;5062397;28;20452;-94
2023/03/29 00:21:06;;;;;;;0.30;0.30;;;4.40;99.90;;;;;;5078551;28;20186;-94
2023/03/29 00:23:31;;;;;;;0.37;0.37;;;4.40;99.90;;;;;;5088328;22;20222;-94
2023/03/29 00:25:57;;;;;;;0.40;0.40;;;4.30;99.90;;;;;;5088336;22;20317;-94
2023/03/29 00:28:31;;;;;;;0.30;0.30;;;4.20;99.90;;;;;;5082086;28;20263;-93
2023/03/29 00:31:09;;;;;;;0.20;0.20;;;4.20;99.90;;;;;;5114887;22;20247;-94
2023/03/29 00:33:35;;;;;;;0.40;0.40;;;4.10;99.90;;;;;;5093544;22;20618;-94
2023/03/29 00:36:02;;;;;;;0.30;0.30;;;4.00;99.90;;;;;;5058309;28;20453;-92
2023/03/29 00:38:44;;;;;;;0.37;0.37;;;4.00;99.90;;;;;;5048324;28;20483;-93
2023/03/29 00:41:10;;;;;;;0.40;0.40;;;4.00;99.90;;;;;;5088636;22;20420;-93
2023/03/29 00:43:56;;;;;;;0.40;0.40;;;4.00;99.90;;;;;;5076623;28;22788;-93
2023/03/29 00:46:33;;;;;;;0.33;0.33;;;4.00;99.90;;;;;;5068003;28;20986;-93
2023/03/29 00:49:25;;;;;;;0.40;0.40;;;4.00;99.90;;;;;;5056269;28;20449;-93
2023/03/29 00:51:50;;;;;;;0.40;0.40;;;4.00;99.90;;;;;;5070050;28;20956;-94
2023/03/29 00:57:02;;;;;;;0.30;0.30;;;3.80;99.90;;;;;;5103890;22;20237;-94
2023/03/29 00:59:31;;;;;;;0.40;0.40;;;3.60;99.90;;;;;;5085737;22;21645;-95
2023/03/29 01:02:01;;;;;;;0.40;0.40;;;3.70;99.90;;;;;;5058917;28;20444;-94
2023/03/29 01:04:45;;;;;;;0.47;0.47;;;3.50;99.90;;;;;;5047284;28;20492;-94
2023/03/29 01:07:20;;;;;;;0.50;0.50;;;3.40;99.90;;;;;;5061152;23;20814;-94
2023/03/29 01:09:54;;;;;;;0.50;0.50;;;3.40;99.90;;;;;;5070821;23;20490;-93
2023/03/29 01:12:24;;;;;;;0.50;0.50;;;3.30;99.90;;;;;;5098742;22;20488;-93
2023/03/29 01:15:07;;;;;;;0.40;0.40;;;3.30;99.90;;;;;;5132532;22;20481;-95
2023/03/29 01:17:33;;;;;;;0.40;0.40;;;3.30;99.90;;;;;;5080296;22;20479;-93
2023/03/29 01:20:13;;;;;;;0.43;0.43;;;3.20;99.90;;;;;;5081312;22;20497;-93
2023/03/29 01:23:26;;;;;;;0.40;0.40;;;3.30;99.90;;;;;;4991347;28;20200;-94
2023/03/29 01:26:15;;;;;;;0.47;0.47;;;3.10;99.90;;;;;;5035158;23;20487;-94
2023/03/29 01:28:57;;;;;;;0.40;0.40;;;3.20;99.90;;;;;;5074754;28;20457;-94
2023/03/29 01:31:35;;;;;;;0.40;0.40;;;3.20;99.90;;;;;;5067600;28;20523;-93
2023/03/29 01:34:34;;;;;;;0.40;0.40;;;3.20;99.90;;;;;;5062094;28;20498;-93
2023/03/29 01:37:11;;;;;;;0.40;0.40;;;3.10;99.90;;;;;;5034904;28;20971;-93
2023/03/29 01:39:40;;;;;;;0.50;0.50;;;3.10;99.90;;;;;;5078956;28;20821;-95
2023/03/29 01:44:40;;;;;;;0.50;0.50;;;3.20;99.90;;;;;;5164763;22;20503;-93
2023/03/29 01:47:26;;;;;;;0.50;0.50;;;3.00;99.90;;;;;;5081827;28;20653;-94
2023/03/29 01:50:11;;;;;;;0.50;0.50;;;3.20;99.90;;;;;;5060763;28;20456;-94
2023/03/29 01:53:17;;;;;;;0.50;0.50;;;3.30;99.90;;;;;;5059482;23;20539;-93
2023/03/29 01:55:52;;;;;;;0.40;0.40;;;3.20;99.90;;;;;;5075651;28;20487;-93
2023/03/29 01:58:21;;;;;;;0.40;0.40;;;3.20;99.90;;;;;;5077744;28;20584;-94
2023/03/29 02:00:54;;;;;;;0.40;0.40;;;3.20;99.90;;;;;;5067498;22;20548;-93
2023/03/29 02:03:26;;;;;;;0.40;0.40;;;3.20;99.90;;;;;;5096078;28;20451;-93
2023/03/29 02:05:58;;;;;;;0.50;0.50;;;3.20;99.90;;;;;;5081928;28;20447;-93
2023/03/29 02:08:25;;;;;;;0.50;0.50;;;3.30;99.90;;;;;;5099481;28;20435;-93
2023/03/29 02:10:52;;;;;;;0.40;0.40;;;3.30;99.90;;;;;;5095722;28;20439;-93
2023/03/29 02:13:19;;;;;;;0.40;0.40;;;3.30;99.90;;;;;;5112087;22;20991;-93
2023/03/29 02:15:46;;;;;;;0.40;0.40;;;3.30;99.90;;;;;;5078259;28;20443;-94
2023/03/29 02:18:24;;;;;;;0.40;0.40;;;3.30;99.90;;;;;;5059164;23;20497;-93
2023/03/29 02:20:52;;;;;;;0.40;0.40;;;3.30;99.90;;;;;;5033058;28;20454;-93
2023/03/29 02:23:26;;;;;;;0.40;0.40;;;3.30;99.90;;;;;;5037085;28;20461;-93
2023/03/29 02:25:52;;;;;;;0.40;0.40;;;3.30;99.90;;;;;;5078819;23;20520;-93
2023/03/29 02:28:20;;;;;;;0.30;0.30;;;3.40;99.90;;;;;;5077743;28;20455;-93
2023/03/29 02:31:03;;;;;;;0.40;0.40;;;3.30;99.90;;;;;;5067690;28;20448;-93
2023/03/29 02:33:50;;;;;;;0.40;0.40;;;3.30;99.90;;;;;;5066140;22;20453;-92
2023/03/29 02:36:34;;;;;;;0.40;0.40;;;3.30;99.90;;;;;;5014909;28;20466;-94
2023/03/29 02:39:03;;;;;;;0.50;0.50;;;3.30;99.90;;;;;;5016358;28;20442;-92
2023/03/29 02:41:29;;;;;;;0.50;0.50;;;3.30;99.90;;;;;;5044364;28;20496;-94
2023/03/29 02:43:57;;;;;;;0.50;0.50;;;3.30;99.90;;;;;;5050887;23;20423;-93
2023/03/29 02:46:25;;;;;;;0.40;0.40;;;3.30;99.90;;;;;;5077070;28;20553;-93
2023/03/29 02:49:06;;;;;;;0.40;0.40;;;3.30;99.90;;;;;;5080267;28;21053;-93
2023/03/29 02:51:34;;;;;;;0.50;0.50;;;3.30;99.90;;;;;;5075865;28;20999;-92
2023/03/29 02:54:16;;;;;;;0.50;0.50;;;3.20;99.90;;;;;;5057920;28;20530;-93
2023/03/29 02:57:05;;;;;;;0.40;0.40;;;3.30;99.90;;;;;;5053719;28;20469;-93
2023/03/29 02:59:32;;;;;;;0.50;0.50;;;3.30;99.90;;;;;;5070425;28;20436;-93
2023/03/29 03:01:58;;;;;;;0.50;0.50;;;3.20;99.90;;;;;;5171942;22;20498;-93
2023/03/29 03:04:24;;;;;;;0.40;0.40;;;3.20;99.90;;;;;;5078240;28;20455;-92
2023/03/29 03:06:50;;;;;;;0.50;0.50;;;3.30;99.90;;;;;;5080432;28;20868;-93
2023/03/29 03:11:57;;;;;;;0.40;0.40;;;3.30;99.90;;;;;;5091831;28;20544;-93
2023/03/29 03:14:22;;;;;;;0.43;0.43;;;3.30;99.90;;;;;;5103992;28;20459;-93
2023/03/29 03:16:48;;;;;;;0.40;0.40;;;3.30;99.90;;;;;;5082779;28;20528;-93
2023/03/29 03:19:14;;;;;;;0.40;0.40;;;3.30;99.90;;;;;;5088263;22;20273;-93
2023/03/29 03:21:49;;;;;;;0.50;0.50;;;3.30;99.90;;;;;;5099178;28;20469;-94
2023/03/29 03:24:16;;;;;;;0.40;0.40;;;3.20;99.90;;;;;;5098439;28;20192;-93
2023/03/29 03:26:45;;;;;;;0.50;0.50;;;3.20;99.90;;;;;;5081706;28;20454;-92
2023/03/29 03:29:12;;;;;;;0.40;0.40;;;3.30;99.90;;;;;;5076873;23;20484;-93
2023/03/29 03:31:40;;;;;;;0.40;0.40;;;3.30;99.90;;;;;;5060743;28;20452;-93
2023/03/29 03:34:10;;;;;;;0.40;0.40;;;3.30;99.90;;;;;;5063203;28;20437;-93
2023/03/29 03:36:47;;;;;;;0.50;0.50;;;3.30;99.90;;;;;;5057233;28;20484;-93
2023/03/29 03:39:13;;;;;;;0.50;0.50;;;3.30;99.90;;;;;;5047344;28;20430;-93
2023/03/29 03:41:39;;;;;;;0.40;0.40;;;3.30;99.90;;;;;;5059173;28;20534;-93
2023/03/29 03:44:05;;;;;;;0.40;0.40;;;3.30;99.90;;;;;;5062487;28;20199;-93
2023/03/29 03:46:31;;;;;;;0.40;0.40;;;3.30;99.90;;;;;;5062428;28;20222;-93
2023/03/29 03:48:58;;;;;;;0.30;0.30;;;3.30;99.90;;;;;;5039741;28;20469;-93
2023/03/29 03:53:52;;;;;;;0.50;0.50;;;3.30;99.90;;;;;;5080626;23;20535;-93
2023/03/29 03:56:19;;;;;;;0.40;0.40;;;3.30;99.90;;;;;;5078125;28;20473;-93
2023/03/29 03:58:45;;;;;;;0.43;0.43;;;3.30;99.90;;;;;;5063587;28;20273;-93
2023/03/29 04:01:10;;;;;;;0.40;0.40;;;3.30;99.90;;;;;;5080623;22;21038;-92
2023/03/29 04:03:36;;;;;;;0.40;0.40;;;3.30;99.90;;;;;;5060971;28;20262;-93
2023/03/29 04:06:03;;;;;;;0.50;0.50;;;3.30;99.90;;;;;;5056915;28;20259;-93
2023/03/29 04:11:02;;;;;;;0.40;0.40;;;3.20;99.90;;;;;;5113000;22;20483;-94
2023/03/29 04:13:28;;;;;;;0.40;0.40;;;3.30;99.90;;;;;;5061993;28;20200;-91
2023/03/29 04:15:55;;;;;;;0.50;0.50;;;3.30;99.90;;;;;;5076458;28;20959;-94
2023/03/29 04:18:22;;;;;;;0.40;0.40;;;3.20;99.90;;;;;;5073058;23;20490;-93
2023/03/29 04:20:54;;;;;;;0.50;0.50;;;3.20;99.90;;;;;;5092907;28;20484;-94
2023/03/29 04:23:19;;;;;;;0.50;0.50;;;3.30;99.90;;;;;;5071741;28;20427;-93
2023/03/29 04:25:45;;;;;;;0.40;0.40;;;3.30;99.90;;;;;;5083014;28;20490;-93
2023/03/29 04:28:11;;;;;;;0.40;0.40;;;3.30;99.90;;;;;;5075996;23;20708;-94
2023/03/29 04:30:37;;;;;;;0.50;0.50;;;3.30;99.90;;;;;;5062112;28;20186;-93
2023/03/29 04:33:02;;;;;;;0.40;0.40;;;3.30;99.90;;;;;;5080642;28;20446;-93
2023/03/29 04:38:03;;;;;;;0.40;0.40;;;3.20;99.90;;;;;;5103821;22;20227;-93
2023/03/29 04:40:29;;;;;;;0.40;0.40;;;3.30;99.90;;;;;;5078109;28;20451;-93
2023/03/29 04:42:55;;;;;;;0.40;0.40;;;3.30;99.90;;;;;;5080197;28;20215;-92
2023/03/29 04:45:20;;;;;;;0.50;0.50;;;3.30;99.90;;;;;;5087686;22;20504;-93
2023/03/29 04:47:46;;;;;;;0.40;0.40;;;3.30;99.90;;;;;;5062587;28;20621;-92
2023/03/29 04:50:24;;;;;;;0.40;0.40;;;3.30;99.90;;;;;;5078838;28;20216;-93
2023/03/29 04:52:50;;;;;;;0.40;0.40;;;3.30;99.90;;;;;;5105090;22;20232;-93
2023/03/29 04:55:15;;;;;;;0.40;0.40;;;3.40;99.90;;;;;;5059513;28;20476;-93
2023/03/29 04:57:43;;;;;;;0.40;0.40;;;3.40;99.90;;;;;;5083563;22;20245;-93
2023/03/29 05:00:15;;;;;;;0.40;0.40;;;3.40;99.90;;;;;;5050269;28;20678;-94
2023/03/29 05:05:07;;;;;;;0.40;0.40;;;3.40;99.90;;;;;;5272176;22;20514;-94
2023/03/29 05:07:32;;;;;;;0.47;0.47;;;3.40;99.90;;;;;;5063427;28;20170;-93
2023/03/29 05:09:58;;;;;;;0.50;0.50;;;3.40;99.90;;;;;;5079011;28;20439;-94
2023/03/29 05:12:24;;;;;;;0.40;0.40;;;3.40;99.90;;;;;;5089161;22;20233;-93
2023/03/29 05:14:50;;;;;;;0.40;0.40;;;3.40;99.90;;;;;;5061300;28;20676;-93
2023/03/29 05:17:21;;;;;;;0.40;0.40;;;3.40;99.90;;;;;;5074672;28;20220;-93
2023/03/29 05:22:13;;;;;;;0.40;0.40;;;3.40;99.90;;;;;;5081139;22;20472;-95
2023/03/29 05:24:38;;;;;;;0.50;0.50;;;3.40;99.90;;;;;;5076921;28;20272;-94
2023/03/29 05:27:21;;;;;;;0.40;0.40;;;3.40;99.90;;;;;;5073697;28;20965;-93
2023/03/29 05:30:05;;;;;;;0.40;0.40;;;3.40;99.90;;;;;;5050413;28;20623;-93
2023/03/29 05:32:30;;;;;;;0.40;0.40;;;3.40;99.90;;;;;;5061283;28;20466;-93
2023/03/29 05:34:56;;;;;;;0.50;0.50;;;3.40;99.90;;;;;;5073452;28;20444;-94
2023/03/29 05:37:22;;;;;;;0.40;0.40;;;3.40;99.90;;;;;;5049243;22;20243;-94
2023/03/29 05:39:48;;;;;;;0.50;0.50;;;3.40;99.90;;;;;;5037293;28;20222;-94
2023/03/29 05:42:27;;;;;;;0.43;0.43;;;3.40;99.90;;;;;;5041970;28;20188;-92
2023/03/29 05:44:53;;;;;;;0.40;0.40;;;3.40;99.90;;;;;;5023217;28;20431;-93
2023/03/29 05:47:19;;;;;;;0.40;0.40;;;3.50;99.90;;;;;;5001178;28;20509;-93
2023/03/29 05:49:45;;;;;;;0.50;0.50;;;3.40;99.90;;;;;;5027020;22;20500;-91
2023/03/29 05:52:13;;;;;;;0.30;0.30;;;3.40;99.90;;;;;;5000863;28;20299;-93
2023/03/29 05:54:39;;;;;;;0.40;0.40;;;3.50;99.90;;;;;;5072734;22;20235;-94
2023/03/29 05:57:21;;;;;;;0.23;0.23;;;3.50;99.90;;;;;;5037118;28;20537;-94
2023/03/29 05:59:47;;;;;;;0.40;0.40;;;3.50;99.90;;;;;;5067382;23;20233;-94
2023/03/29 06:02:19;;;;;;;0.40;0.40;;;3.50;99.90;;;;;;5056059;28;20441;-94
2023/03/29 06:04:44;;;;;;;0.40;0.40;;;3.50;99.90;;;;;;5057487;28;20228;-94
2023/03/29 06:07:11;;;;;;;0.40;0.40;;;3.50;99.90;;;;;;5056486;28;20961;-94
2023/03/29 06:09:46;;;;;;;0.30;0.30;;;3.50;99.90;;;;;;5059533;28;20717;-94
2023/03/29 06:12:12;;;;;;;0.40;0.40;;;3.50;99.90;;;;;;5057978;28;20420;-94
2023/03/29 06:14:39;;;;;;;0.30;0.30;;;3.60;99.90;;;;;;5056178;28;20461;-94
2023/03/29 06:17:04;;;;;;;0.40;0.40;;;3.60;99.90;;;;;;5053901;28;21017;-95
2023/03/29 06:19:30;;;;;;;0.40;0.40;;;3.60;99.90;;;;;;5113989;22;20493;-94
2023/03/29 06:22:02;;;;;;;0.40;0.40;;;3.60;99.90;;;;;;5077300;23;20257;-94
2023/03/29 06:24:29;;;;;;;0.30;0.30;;;3.70;99.90;;;;;;5069272;28;20440;-94
2023/03/29 06:26:55;;;;;;;0.37;0.37;;;3.80;99.90;;;;;;5074242;28;20452;-93
2023/03/29 06:29:25;;;;;;;0.40;0.40;;;3.80;99.90;;;;;;5055548;28;20535;-92
2023/03/29 06:31:52;;;;;;;0.40;0.40;;;3.90;99.90;;;;;;5068500;28;20960;-91
2023/03/29 06:34:17;;;;;;;0.30;0.30;;;3.90;99.90;;;;;;5066663;28;20443;-91
2023/03/29 06:36:44;;;;;;;0.40;0.40;;;3.90;99.90;;;;;;5084698;28;20486;-91
2023/03/29 06:39:09;;;;;;;0.30;0.30;;;3.90;99.90;;;;;;5060911;28;20216;-92
2023/03/29 06:41:35;;;;;;;0.30;0.30;;;3.90;99.90;;;;;;5084720;28;20458;-90
2023/03/29 06:44:02;;;;;;;0.40;0.40;;;3.90;99.90;;;;;;5059223;28;20179;-90
2023/03/29 06:46:28;;;;;;;0.30;0.30;;;3.90;99.90;;;;;;5076455;28;20178;-91
2023/03/29 06:48:54;;;;;;;0.40;0.40;;;3.90;99.90;;;;;;5117753;23;20571;-90
2023/03/29 06:51:21;;;;;;;0.40;0.40;;;3.90;99.90;;;;;;5033775;28;20184;-90
2023/03/29 06:53:52;;;;;;;0.37;0.37;;;4.00;99.90;;;;;;5019259;28;20227;-91
2023/03/29 06:56:18;;;;;;;0.40;0.40;;;4.00;99.90;;;;;;5044091;22;20497;-91
2023/03/29 06:58:43;;;;;;;0.40;0.40;;;4.00;99.90;;;;;;5098683;28;20457;-91
2023/03/29 07:01:10;;;;;;;0.20;0.20;;;4.10;99.90;;;;;;5092535;28;20189;-92
2023/03/29 07:03:38;;;;;;;0.30;0.30;;;4.10;99.90;;;;;;5074752;28;20260;-90
2023/03/29 07:06:09;;;;;;;0.40;0.40;;;4.20;99.90;;;;;;5085569;23;20492;-92
2023/03/29 07:08:50;;;;;;;0.30;0.30;;;4.30;99.90;;;;;;5064281;28;20436;-92
2023/03/29 07:11:17;;;;;;;0.30;0.30;;;4.30;99.90;;;;;;5081587;28;20435;-92
2023/03/29 07:13:43;;;;;;;0.30;0.30;;;4.30;99.90;;;;;;5066106;23;20524;-90
2023/03/29 07:16:11;;;;;;;0.30;0.30;;;4.30;99.90;;;;;;5034810;28;21079;-92
2023/03/29 07:18:42;;;;;;;0.30;0.30;;;4.40;99.90;;;;;;5042204;28;20553;-93
2023/03/29 07:21:09;;;;;;;0.30;0.30;;;4.40;99.90;;;;;;5065932;28;20485;-92
2023/03/29 07:23:35;;;;;;;0.40;0.40;;;4.40;99.90;;;;;;5129538;22;20550;-92
2023/03/29 07:26:02;;;;;;;0.30;0.30;;;4.40;99.90;;;;;;5060275;28;20420;-93
2023/03/29 07:28:29;;;;;;;0.33;0.33;;;4.40;99.90;;;;;;5057091;28;20557;-92
2023/03/29 07:31:14;;;;;;;0.30;0.30;;;4.50;99.90;;;;;;5051373;23;20645;-92
2023/03/29 07:33:39;;;;;;;0.30;0.30;;;4.50;99.90;;;;;;5012905;28;20455;-92
2023/03/29 07:36:06;;;;;;;0.30;0.30;;;4.50;99.90;;;;;;5016740;28;20446;-93
2023/03/29 07:38:31;;;;;;;0.30;0.30;;;4.60;99.90;;;;;;5027754;22;20258;-90
2023/03/29 07:40:58;;;;;;;0.40;0.40;;;4.50;99.90;;;;;;5033459;28;20450;-94
2023/03/29 07:43:24;;;;;;;0.30;0.30;;;4.50;99.90;;;;;;5035034;28;20191;-93
2023/03/29 07:45:52;;;;;;;0.40;0.40;;;4.50;99.90;;;;;;5009596;28;20810;-92
2023/03/29 07:48:18;;;;;;;0.30;0.30;;;4.50;99.90;;;;;;5026380;28;20207;-92
2023/03/29 07:50:47;;;;;;;0.33;0.33;;;4.50;99.90;;;;;;5049642;28;20445;-90
2023/03/29 07:53:12;;;;;;;0.40;0.40;;;4.60;99.90;;;;;;5033966;28;20179;-91
2023/03/29 07:55:45;;;;;;;0.40;0.40;;;4.60;99.90;;;;;;5032734;28;20454;-92
2023/03/29 07:58:11;;;;;;;0.40;0.40;;;4.60;99.90;;;;;;5018911;28;20222;-90
2023/03/29 08:00:38;;;;;;;0.40;0.40;;;4.70;99.90;;;;;;5031166;28;20461;-88
2023/03/29 08:03:04;;;;;;;0.30;0.30;;;4.70;99.90;;;;;;5044267;28;21030;-87
2023/03/29 08:05:30;;;;;;;0.37;0.37;;;4.70;99.90;;;;;;5043631;28;20199;-88
2023/03/29 08:07:56;;;;;;;0.40;0.40;;;4.70;99.90;;;;;;5040920;28;21023;-87
2023/03/29 08:10:22;;;;;;;0.40;0.40;;;4.80;99.90;;;;;;5037244;28;20436;-83
2023/03/29 08:12:49;;;;;;;0.30;0.30;;;4.80;99.90;;;;;;5059128;28;20643;-84
2023/03/29 08:15:15;;;;;;;0.30;0.30;;;4.90;99.90;;;;;;5037474;28;20437;-83
2023/03/29 08:17:41;;;;;;;0.40;0.40;;;5.00;99.90;;;;;;5040334;28;20476;-86
2023/03/29 08:20:09;;;;;;;0.37;0.37;;;5.10;99.90;;;;;;5042277;28;20967;-85
2023/03/29 08:22:36;;;;;;;0.30;0.30;;;5.10;99.90;;;;;;5040721;28;20650;-94
2023/03/29 08:25:03;;;;;;;0.30;0.30;;;5.10;99.90;;;;;;5038036;28;20557;-82
2023/03/29 08:27:29;;;;;;;0.40;0.40;;;5.10;99.90;;;;;;5022367;28;20449;-82
2023/03/29 08:29:54;;;;;;;0.40;0.40;;;5.10;99.90;;;;;;5042794;28;20848;-83
2023/03/29 08:32:20;;;;;;;0.30;0.30;;;5.10;99.90;;;;;;5038378;28;20205;-82
2023/03/29 08:34:45;;;;;;;0.33;0.33;;;5.10;99.90;;;;;;5044240;28;20190;-82
2023/03/29 08:37:11;;;;;;;0.40;0.40;;;5.10;99.90;;;;;;5052544;28;20561;-81
2023/03/29 08:39:37;;;;;;;0.30;0.30;;;5.20;99.90;;;;;;5058452;28;20577;-81
2023/03/29 08:42:29;;;;;;;0.40;0.40;;;5.20;99.90;;;;;;5021212;28;20189;-82
2023/03/29 08:45:46;;;;;;;0.30;0.30;;;5.30;99.90;;;;;;5040699;28;20524;-82
2023/03/29 08:48:27;;;;;;;0.30;0.30;;;5.30;99.90;;;;;;5021787;28;20536;-81
2023/03/29 08:50:58;;;;;;;0.40;0.40;;;5.30;99.90;;;;;;5047317;28;20872;-81
2023/03/29 08:53:31;;;;;;;0.30;0.30;;;5.20;99.90;;;;;;5045214;28;20536;-82
2023/03/29 08:56:01;;;;;;;0.30;0.30;;;5.20;99.90;;;;;;5043311;28;20429;-82
2023/03/29 08:58:31;;;;;;;0.40;0.40;;;5.40;99.90;;;;;;5036349;28;20483;-82
2023/03/29 09:00:59;;;;;;;0.30;0.30;;;5.40;99.90;;;;;;5046305;28;20437;-82
2023/03/29 09:03:45;;;;;;;0.30;0.30;;;5.50;99.90;;;;;;5058302;28;20479;-82
2023/03/29 09:06:12;;;;;;;0.40;0.40;;;5.60;99.90;;;;;;5049949;28;20445;-82
2023/03/29 09:08:47;;;;;;;0.40;0.40;;;5.50;99.90;;;;;;5027053;28;20812;-83
2023/03/29 09:11:15;;;;;;;0.30;0.30;;;5.50;99.90;;;;;;5040251;28;20478;-82
2023/03/29 09:13:46;;;;;;;0.30;0.30;;;5.50;99.90;;;;;;5055349;28;20515;-93
2023/03/29 09:16:26;;;;;;;0.40;0.40;;;5.40;99.90;;;;;;5046083;28;20446;-92
2023/03/29 09:19:16;;;;;;;0.30;0.30;;;5.10;99.90;;;;;;5032736;28;20454;-91
2023/03/29 09:21:58;;;;;;;0.40;0.40;;;5.30;99.90;;;;;;5043476;28;20438;-90
2023/03/29 09:24:35;;;;;;;0.40;0.40;;;5.40;99.90;;;;;;5037678;28;20499;-91
2023/03/29 09:27:10;;;;;;;0.40;0.40;;;5.30;99.90;;;;;;5057849;23;20503;-90
2023/03/29 09:29:55;;;;;;;0.30;0.30;;;5.30;99.90;;;;;;5071255;28;20445;-91
2023/03/29 09:32:27;;;;;;;0.40;0.40;;;5.20;99.90;;;;;;5096852;28;20462;-91
2023/03/29 09:35:06;;;;;;;0.30;0.30;;;5.20;99.90;;;;;;5075133;28;20937;-92
2023/03/29 09:37:35;;;;;;;0.30;0.30;;;5.20;99.90;;;;;;5055216;28;20477;-92
2023/03/29 09:40:09;;;;;;;0.40;0.40;;;5.30;99.90;;;;;;5073903;28;20596;-91
2023/03/29 09:42:36;;;;;;;0.30;0.30;;;5.10;99.90;;;;;;5086101;28;20935;-91
2023/03/29 09:45:07;;;;;;;0.40;0.40;;;5.30;99.90;;;;;;5062203;28;20441;-91
2023/03/29 09:47:43;;;;;;;0.40;0.40;;;5.40;99.90;;;;;;5037158;28;20443;-91
2023/03/29 09:50:27;;;;;;;0.30;0.30;;;5.40;99.90;;;;;;5061784;28;20450;-90
2023/03/29 09:52:53;;;;;;;0.30;0.30;;;5.40;99.90;;;;;;5055051;28;20441;-91
2023/03/29 09:55:22;;;;;;;0.40;0.40;;;5.30;99.90;;;;;;5070773;28;20443;-90
2023/03/29 09:57:49;;;;;;;0.30;0.30;;;5.50;99.90;;;;;;5046532;28;20222;-91
2023/03/29 10:00:16;;;;;;;0.40;0.40;;;5.60;99.90;;;;;;5060895;28;20440;-90
2023/03/29 10:02:51;;;;;;;0.40;0.40;;;5.50;99.90;;;;;;5075378;28;20432;-89
2023/03/29 10:05:17;;;;;;;0.30;0.30;;;5.50;99.90;;;;;;5049177;28;20427;-91
2023/03/29 10:07:52;;;;;;;0.30;0.30;;;5.70;99.90;;;;;;5072557;28;20424;-91
2023/03/29 10:10:26;;;;;;;0.30;0.30;;;5.80;99.90;;;;;;5071639;28;20181;-90
2023/03/29 10:12:56;;;;;;;0.40;0.40;;;5.70;99.90;;;;;;5055873;28;20452;-91
2023/03/29 10:15:22;;;;;;;0.30;0.30;;;5.70;99.90;;;;;;5072572;28;20468;-91
2023/03/29 10:17:47;;;;;;;0.30;0.30;;;5.70;99.90;;;;;;5059348;23;20477;-90
2023/03/29 10:20:18;;;;;;;0.30;0.30;;;5.80;99.90;;;;;;5056408;28;20456;-91
2023/03/29 10:22:58;;;;;;;0.30;0.30;;;5.80;99.90;;;;;;5056035;28;20194;-88
2023/03/29 10:25:31;;;;;;;0.30;0.30;;;5.90;99.90;;;;;;5080533;23;20508;-89
2023/03/29 10:28:08;;;;;;;0.20;0.20;;;6.00;99.90;;;;;;5057008;28;21128;-88
2023/03/29 10:30:37;;;;;;;0.30;0.30;;;6.00;99.90;;;;;;5072492;28;20456;-88
2023/03/29 10:33:03;;;;;;;0.30;0.30;;;6.10;99.90;;;;;;5074391;28;20448;-88
2023/03/29 10:35:53;;;;;;;0.30;0.30;;;6.10;99.90;;;;;;5064129;28;20452;-89
2023/03/29 10:38:23;;;;;;;0.30;0.30;;;6.10;99.90;;;;;;5075802;28;20492;-88
2023/03/29 10:40:51;;;;;;;0.30;0.30;;;6.30;99.90;;;;;;5115987;22;20502;-87
2023/03/29 10:43:16;;;;;;;0.30;0.30;;;6.20;99.90;;;;;;5073313;28;20448;-89
2023/03/29 10:45:45;;;;;;;0.30;0.30;;;6.30;99.90;;;;;;5071150;28;20455;-88
2023/03/29 10:48:13;;;;;;;0.30;0.30;;;6.20;99.90;;;;;;5054755;28;20193;-88
2023/03/29 10:50:40;;;;;;;0.30;0.30;;;6.20;99.90;;;;;;5051103;28;20952;-88
2023/03/29 10:59:24;;;;;;;0.30;0.30;;;6.20;99.90;;;;;;5162171;23;21040;-90
2023/03/29 11:02:07;;;;;;;0.30;0.30;;;6.10;99.90;;;;;;5064540;23;20503;-90
2023/03/29 11:05:23;;;;;;;0.30;0.30;;;6.10;99.90;;;;;;5056037;28;20460;-89
2023/03/29 11:08:11;;;;;;;0.30;0.30;;;6.20;99.90;;;;;;5047152;28;20453;-90
2023/03/29 11:10:55;;;;;;;0.30;0.30;;;6.10;99.90;;;;;;5076413;22;20607;-90
2023/03/29 11:13:41;;;;;;;0.30;0.30;;;6.20;99.90;;;;;;5064445;28;20448;-90
2023/03/29 11:16:26;;;;;;;0.30;0.30;;;6.30;99.90;;;;;;5075283;28;21037;-91
2023/03/29 11:19:58;;;;;;;0.20;0.20;;;6.30;99.90;;;;;;5068018;28;20464;-90
2023/03/29 11:22:41;;;;;;;0.30;0.30;;;6.40;99.90;;;;;;5038137;28;20441;-87
2023/03/29 11:25:26;;;;;;;0.20;0.20;;;6.60;99.90;;;;;;5048526;28;20445;-88
2023/03/29 11:30:39;;;;;;;0.30;0.30;;;6.70;99.90;;;;;;5078194;22;20841;-88
2023/03/29 11:33:32;;;;;;;0.30;0.30;;;6.90;99.90;;;;;;5060596;28;20511;-87
2023/03/29 11:38:33;;;;;;;0.20;0.20;;;6.80;99.90;;;;;;5052432;22;1076661;-86
2023/03/29 11:41:09;;;;;;;0.30;0.30;;;6.80;99.90;;;;;;5078929;28;20206;-86
2023/03/29 11:43:59;;;;;;;0.30;0.30;;;6.80;99.90;;;;;;5059299;28;20527;-89
2023/03/29 11:46:33;;;;;;;0.30;0.30;;;6.80;99.90;;;;;;5097137;23;20538;-88
2023/03/29 11:49:21;;;;;;;0.30;0.30;;;6.90;99.90;;;;;;5097696;28;20473;-90
2023/03/29 11:51:55;;;;;;;0.20;0.20;;;6.90;99.90;;;;;;5098335;28;20494;-88
2023/03/29 11:54:41;;;;;;;0.30;0.30;;;6.90;99.90;;;;;;5094272;28;21143;-87
2023/03/29 11:57:47;;;;;;;0.30;0.30;;;6.90;99.90;;;;;;5108273;28;20965;-86
2023/03/29 12:00:26;;;;;;;0.27;0.27;;;6.90;99.90;;;;;;5028814;22;21429;-85
2023/03/29 12:03:27;;;;;;;0.30;0.30;;;6.90;99.90;;;;;;5096890;28;20871;-87
2023/03/29 12:08:34;;;;;;;0.20;0.20;;;6.90;99.90;;;;;;5089297;22;20524;-86
2023/03/29 12:11:23;;;;;;;0.20;0.20;;;6.90;99.90;;;;;;5105992;22;20442;-85
2023/03/29 12:13:53;;;;;;;0.30;0.30;;;6.90;99.90;;;;;;5044275;28;20453;-88
2023/03/29 12:16:31;;;;;;;0.20;0.20;;;6.90;99.90;;;;;;5053144;22;20426;-88
2023/03/29 12:19:02;;;;;;;0.30;0.30;;;6.90;99.90;;;;;;5082084;22;20495;-88
2023/03/29 12:21:29;;;;;;;0.30;0.30;;;7.00;99.90;;;;;;5061596;28;20428;-87
2023/03/29 12:23:55;;;;;;;0.20;0.20;;;7.10;99.90;;;;;;5056790;28;20472;-88
2023/03/29 12:26:56;;;;;;;0.20;0.20;;;7.10;99.90;;;;;;5064132;28;20436;-89
2023/03/29 12:29:40;;;;;;;0.30;0.30;;;7.20;99.90;;;;;;5102450;22;20609;-87
2023/03/29 12:32:25;;;;;;;0.20;0.20;;;7.20;99.90;;;;;;5092008;28;20517;-87
2023/03/29 12:35:02;;;;;;;0.30;0.30;;;7.30;99.90;;;;;;5087263;28;20444;-88
2023/03/29 12:37:43;;;;;;;0.20;0.20;;;7.40;99.90;;;;;;5095376;22;20478;-87
2023/03/29 12:40:10;;;;;;;0.30;0.30;;;7.40;99.90;;;;;;5057392;28;20475;-87
2023/03/29 12:45:49;;;;;;;0.27;0.27;;;7.40;99.90;;;;;;5101584;22;20534;-88
2023/03/29 12:48:28;;;;;;;0.20;0.20;;;7.50;99.90;;;;;;5106126;28;20514;-89
2023/03/29 12:51:03;;;;;;;0.20;0.20;;;7.60;99.90;;;;;;5085560;27;20445;-88
2023/03/29 12:53:34;;;;;;;0.20;0.20;;;7.60;99.90;;;;;;5103617;22;20573;-88
2023/03/29 12:56:02;;;;;;;0.20;0.20;;;7.50;99.90;;;;;;5111568;22;20485;-87
2023/03/29 12:58:42;;;;;;;0.20;0.20;;;7.50;99.90;;;;;;5151896;22;20495;-87
2023/03/29 13:01:29;;;;;;;0.20;0.20;;;7.50;99.90;;;;;;5073421;27;20438;-88
2023/03/29 13:04:17;;;;;;;0.23;0.23;;;7.50;99.90;;;;;;5101539;28;21053;-88
2023/03/29 13:07:02;;;;;;;0.20;0.20;;;7.50;99.90;;;;;;5075531;28;20436;-89
2023/03/29 13:09:34;;;;;;;0.20;0.20;;;7.40;99.90;;;;;;5071309;28;20946;-87
2023/03/29 13:12:14;;;;;;;0.20;0.20;;;7.50;99.90;;;;;;5097772;28;20443;-88
2023/03/29 13:14:43;;;;;;;0.20;0.20;;;7.50;99.90;;;;;;5092459;28;20451;-87
2023/03/29 13:17:20;;;;;;;0.20;0.20;;;7.40;99.90;;;;;;5078251;28;20474;-88
2023/03/29 13:20:30;;;;;;;0.20;0.20;;;7.50;99.90;;;;;;5079412;22;20496;-85
2023/03/29 13:23:35;;;;;;;0.30;0.30;;;7.50;99.90;;;;;;5064932;28;20539;-87
2023/03/29 13:26:30;;;;;;;0.30;0.30;;;7.40;99.90;;;;;;5074318;28;20431;-88
2023/03/29 13:29:17;;;;;;;0.23;0.23;;;7.50;99.90;;;;;;5071237;28;20445;-88
2023/03/29 13:31:55;;;;;;;0.20;0.20;;;7.50;99.90;;;;;;5063427;28;20451;-87
2023/03/29 13:34:40;;;;;;;0.20;0.20;;;7.50;99.90;;;;;;5072534;28;20448;-87
2023/03/29 13:37:40;;;;;;;0.30;0.30;;;7.50;99.90;;;;;;5068334;28;20463;-86
2023/03/29 13:40:28;;;;;;;0.23;0.23;;;7.60;99.90;;;;;;5069177;28;20448;-87
2023/03/29 13:43:00;;;;;;;0.30;0.30;;;7.60;99.90;;;;;;5073405;28;20413;-87
2023/03/29 13:45:28;;;;;;;0.30;0.30;;;7.70;99.90;;;;;;5069326;28;20523;-87
2023/03/29 13:48:25;;;;;;;0.30;0.30;;;7.60;99.90;;;;;;5069906;28;20490;-87
2023/03/29 13:50:54;;;;;;;0.30;0.30;;;7.80;99.90;;;;;;5070202;28;20490;-88
2023/03/29 13:54:04;;;;;;;0.30;0.30;;;7.80;99.90;;;;;;5070074;28;20527;-88
2023/03/29 13:56:37;;;;;;;0.20;0.20;;;7.80;99.90;;;;;;5025391;28;20844;-86
2023/03/29 13:59:17;;;;;;;0.20;0.20;;;7.70;99.90;;;;;;5020703;28;20461;-85
2023/03/29 14:01:56;;;;;;;0.30;0.30;;;7.80;99.90;;;;;;5050977;28;20440;-86
2023/03/29 14:04:34;;;;;;;0.30;0.30;;;7.70;99.90;;;;;;5067749;28;20436;-85
2023/03/29 14:07:00;;;;;;;0.30;0.30;;;7.70;99.90;;;;;;5068213;28;20436;-85